createdAt,value
2022-08-22T00:00:24.816Z,1010.59
2022-08-22T00:01:24.968Z,1010.65
2022-08-22T00:02:26.242Z,1010.65
2022-08-22T00:02:41.622Z,1010.12
2022-08-22T00:02:46.132Z,1010.33
2022-08-22T00:02:47.240Z,1010.62
2022-08-22T00:02:53.141Z,1010.19
2022-08-22T00:02:54.636Z,1010.60
2022-08-22T00:03:08.734Z,1010.59
2022-08-22T00:03:11.262Z,1010.72
2022-08-22T00:03:11.929Z,1010.33
2022-08-22T00:03:24.875Z,1010.63
2022-08-22T00:04:24.892Z,1010.63
2022-08-22T00:05:24.910Z,1010.68
2022-08-22T00:06:24.931Z,1010.65
2022-08-22T00:07:24.954Z,1010.66
2022-08-22T00:08:24.969Z,1010.69
2022-08-22T00:09:24.990Z,1010.66
2022-08-22T00:10:25.775Z,1010.67
2022-08-22T00:11:25.027Z,1010.69
2022-08-22T00:12:25.048Z,1010.70
2022-08-22T00:13:25.064Z,1010.66
2022-08-22T00:14:25.084Z,1010.63
2022-08-22T00:15:43.755Z,1010.67
2022-08-22T00:16:25.124Z,1010.65
2022-08-22T00:17:25.142Z,1010.64
2022-08-22T00:18:25.161Z,1010.63
2022-08-22T00:19:25.200Z,1010.64
2022-08-22T00:20:28.133Z,1010.63
2022-08-22T00:21:25.229Z,1010.62
2022-08-22T00:22:25.241Z,1010.61
2022-08-22T00:23:25.258Z,1010.64
2022-08-22T00:24:25.277Z,1010.63
2022-08-22T00:25:26.084Z,1010.61
2022-08-22T00:26:25.318Z,1010.62
2022-08-22T00:27:25.336Z,1010.61
2022-08-22T00:28:25.356Z,1010.60
2022-08-22T00:29:25.372Z,1010.57
2022-08-22T00:30:25.392Z,1010.57
2022-08-22T00:31:25.412Z,1010.57
2022-08-22T00:32:25.431Z,1010.57
2022-08-22T00:33:25.457Z,1010.54
2022-08-22T00:34:25.467Z,1010.57
2022-08-22T00:35:25.488Z,1010.58
2022-08-22T00:36:25.507Z,1010.57
2022-08-22T00:37:25.526Z,1010.59
2022-08-22T00:38:25.546Z,1010.61
2022-08-22T00:39:25.563Z,1010.61
2022-08-22T00:40:25.586Z,1010.64
2022-08-22T00:41:25.610Z,1010.64
2022-08-22T00:42:31.454Z,1010.65
2022-08-22T00:43:25.642Z,1010.66
2022-08-22T00:44:25.671Z,1010.68
2022-08-22T00:45:25.678Z,1010.68
2022-08-22T00:46:25.698Z,1010.66
2022-08-22T00:47:25.719Z,1010.72
2022-08-22T00:48:25.737Z,1010.67
2022-08-22T00:49:25.757Z,1010.67
2022-08-22T00:50:25.774Z,1010.67
2022-08-22T00:51:25.796Z,1010.67
2022-08-22T00:52:25.812Z,1010.63
2022-08-22T00:53:25.830Z,1010.61
2022-08-22T00:54:25.851Z,1010.62
2022-08-22T00:55:25.870Z,1010.61
2022-08-22T00:56:25.889Z,1010.61
2022-08-22T00:57:25.909Z,1010.61
2022-08-22T00:58:25.930Z,1010.62
2022-08-22T00:59:25.947Z,1010.61
2022-08-22T01:00:25.967Z,1010.60
2022-08-22T01:01:26.042Z,1010.58
2022-08-22T01:02:26.004Z,1010.59
2022-08-22T01:03:26.026Z,1010.58
2022-08-22T01:04:26.041Z,1010.59
2022-08-22T01:05:26.058Z,1010.57
2022-08-22T01:06:26.080Z,1010.59
2022-08-22T01:07:26.098Z,1010.58
2022-08-22T01:08:26.119Z,1010.62
2022-08-22T01:09:26.135Z,1010.65
2022-08-22T01:10:26.155Z,1010.65
2022-08-22T01:11:26.173Z,1010.70
2022-08-22T01:12:26.192Z,1010.71
2022-08-22T01:13:26.214Z,1010.76
2022-08-22T01:14:35.014Z,1010.75
2022-08-22T01:15:26.248Z,1010.76
2022-08-22T01:16:26.269Z,1010.81
2022-08-22T01:17:26.285Z,1010.78
2022-08-22T01:18:26.306Z,1010.82
2022-08-22T01:19:26.328Z,1010.80
2022-08-22T01:20:26.346Z,1010.84
2022-08-22T01:21:26.362Z,1010.81
2022-08-22T01:22:26.389Z,1010.86
2022-08-22T01:23:26.402Z,1010.83
2022-08-22T01:24:26.421Z,1010.87
2022-08-22T01:25:26.439Z,1010.87
2022-08-22T01:26:26.458Z,1010.88
2022-08-22T01:27:26.478Z,1010.86
2022-08-22T01:28:26.494Z,1010.85
2022-08-22T01:29:28.563Z,1010.89
2022-08-22T01:30:26.546Z,1010.87
2022-08-22T01:31:26.550Z,1010.90
2022-08-22T01:32:26.572Z,1010.87
2022-08-22T01:33:26.589Z,1010.89
2022-08-22T01:34:26.607Z,1010.88
2022-08-22T01:35:26.627Z,1010.85
2022-08-22T01:36:26.646Z,1010.89
2022-08-22T01:37:26.663Z,1010.91
2022-08-22T01:38:26.682Z,1010.89
2022-08-22T01:39:26.701Z,1010.90
2022-08-22T01:40:27.204Z,1010.91
2022-08-22T01:41:26.738Z,1010.92
2022-08-22T01:42:26.757Z,1010.91
2022-08-22T01:43:43.859Z,1010.88
2022-08-22T01:44:26.799Z,1010.90
2022-08-22T01:45:26.819Z,1010.92
2022-08-22T01:46:26.833Z,1010.91
2022-08-22T01:47:26.862Z,1010.93
2022-08-22T01:48:26.873Z,1010.91
2022-08-22T01:49:26.887Z,1010.91
2022-08-22T01:50:26.908Z,1010.91
2022-08-22T01:51:26.928Z,1010.90
2022-08-22T01:52:26.948Z,1010.90
2022-08-22T01:53:28.162Z,1010.92
2022-08-22T01:54:26.982Z,1010.91
2022-08-22T01:55:27.003Z,1010.93
2022-08-22T01:56:27.020Z,1010.92
2022-08-22T01:57:27.042Z,1010.95
2022-08-22T01:58:27.062Z,1010.91
2022-08-22T01:59:27.594Z,1010.93
2022-08-22T02:00:34.688Z,1010.90
2022-08-22T02:01:27.236Z,1010.90
2022-08-22T02:02:27.136Z,1010.87
2022-08-22T02:03:27.162Z,1010.86
2022-08-22T02:04:27.172Z,1010.84
2022-08-22T02:05:27.189Z,1010.88
2022-08-22T02:06:27.209Z,1010.87
2022-08-22T02:07:32.167Z,1010.88
2022-08-22T02:08:27.247Z,1010.86
2022-08-22T02:09:27.265Z,1010.87
2022-08-22T02:10:27.282Z,1010.87
2022-08-22T02:11:27.303Z,1010.83
2022-08-22T02:12:27.321Z,1010.84
2022-08-22T02:13:27.341Z,1010.82
2022-08-22T02:14:27.359Z,1010.86
2022-08-22T02:15:27.378Z,1010.84
2022-08-22T02:16:27.398Z,1010.88
2022-08-22T02:17:27.413Z,1010.84
2022-08-22T02:18:27.433Z,1010.85
2022-08-22T02:19:27.454Z,1010.87
2022-08-22T02:20:27.478Z,1010.87
2022-08-22T02:21:27.492Z,1010.83
2022-08-22T02:22:27.508Z,1010.84
2022-08-22T02:23:27.540Z,1010.86
2022-08-22T02:24:27.559Z,1010.87
2022-08-22T02:25:27.562Z,1010.88
2022-08-22T02:26:27.585Z,1010.90
2022-08-22T02:27:31.675Z,1010.87
2022-08-22T02:28:27.621Z,1010.90
2022-08-22T02:29:27.637Z,1010.90
2022-08-22T02:30:27.658Z,1010.91
2022-08-22T02:31:27.677Z,1010.90
2022-08-22T02:32:27.695Z,1010.88
2022-08-22T02:33:27.713Z,1010.88
2022-08-22T02:34:27.733Z,1010.86
2022-08-22T02:35:27.752Z,1010.90
2022-08-22T02:36:27.768Z,1010.87
2022-08-22T02:37:27.788Z,1010.87
2022-08-22T02:38:27.808Z,1010.87
2022-08-22T02:39:27.828Z,1010.89
2022-08-22T02:40:27.844Z,1010.88
2022-08-22T02:41:27.862Z,1010.85
2022-08-22T02:42:27.880Z,1010.87
2022-08-22T02:43:27.900Z,1010.87
2022-08-22T02:44:27.919Z,1010.85
2022-08-22T02:45:27.939Z,1010.86
2022-08-22T02:46:27.954Z,1010.87
2022-08-22T02:47:27.973Z,1010.84
2022-08-22T02:48:27.992Z,1010.87
2022-08-22T02:49:28.010Z,1010.87
2022-08-22T02:50:28.030Z,1010.85
2022-08-22T02:51:28.047Z,1010.83
2022-08-22T02:52:28.067Z,1010.84
2022-08-22T02:53:28.086Z,1010.82
2022-08-22T02:54:28.104Z,1010.81
2022-08-22T02:55:28.123Z,1010.79
2022-08-22T02:56:28.141Z,1010.79
2022-08-22T02:57:28.160Z,1010.81
2022-08-22T02:58:28.180Z,1010.76
2022-08-22T02:59:28.198Z,1010.77
2022-08-22T03:00:32.560Z,1010.82
2022-08-22T03:01:28.235Z,1010.78
2022-08-22T03:02:28.253Z,1010.76
2022-08-22T03:03:28.294Z,1010.81
2022-08-22T03:04:28.291Z,1010.79
2022-08-22T03:05:28.309Z,1010.77
2022-08-22T03:06:28.329Z,1010.79
2022-08-22T03:07:28.348Z,1010.76
2022-08-22T03:08:29.299Z,1010.79
2022-08-22T03:09:28.384Z,1010.78
2022-08-22T03:10:28.402Z,1010.76
2022-08-22T03:11:28.422Z,1010.79
2022-08-22T03:12:28.453Z,1010.80
2022-08-22T03:13:28.456Z,1010.81
2022-08-22T03:14:28.476Z,1010.83
2022-08-22T03:15:28.495Z,1010.81
2022-08-22T03:16:28.512Z,1010.82
2022-08-22T03:17:28.534Z,1010.80
2022-08-22T03:18:28.555Z,1010.83
2022-08-22T03:19:28.571Z,1010.79
2022-08-22T03:20:28.589Z,1010.79
2022-08-22T03:21:28.608Z,1010.74
2022-08-22T03:22:28.626Z,1010.71
2022-08-22T03:23:28.646Z,1010.74
2022-08-22T03:24:28.666Z,1010.72
2022-08-22T03:25:28.682Z,1010.74
2022-08-22T03:26:28.702Z,1010.65
2022-08-22T03:27:33.225Z,1010.69
2022-08-22T03:28:28.738Z,1010.66
2022-08-22T03:29:28.755Z,1010.72
2022-08-22T03:30:28.774Z,1010.69
2022-08-22T03:31:28.793Z,1010.69
2022-08-22T03:32:28.813Z,1010.66
2022-08-22T03:33:28.830Z,1010.70
2022-08-22T03:34:28.848Z,1010.74
2022-08-22T03:35:28.868Z,1010.74
2022-08-22T03:36:28.887Z,1010.72
2022-08-22T03:37:28.906Z,1010.73
2022-08-22T03:38:28.925Z,1010.74
2022-08-22T03:39:28.944Z,1010.75
2022-08-22T03:40:31.825Z,1010.72
2022-08-22T03:41:28.979Z,1010.73
2022-08-22T03:42:28.998Z,1010.73
2022-08-22T03:43:29.019Z,1010.71
2022-08-22T03:44:29.037Z,1010.72
2022-08-22T03:45:29.053Z,1010.76
2022-08-22T03:46:29.073Z,1010.76
2022-08-22T03:47:29.094Z,1010.76
2022-08-22T03:48:29.110Z,1010.71
2022-08-22T03:49:29.131Z,1010.76
2022-08-22T03:50:29.148Z,1010.78
2022-08-22T03:51:29.167Z,1010.78
2022-08-22T03:52:29.182Z,1010.74
2022-08-22T03:53:29.203Z,1010.74
2022-08-22T03:54:30.659Z,1010.74
2022-08-22T03:55:29.241Z,1010.74
2022-08-22T03:56:29.262Z,1010.71
2022-08-22T03:57:29.278Z,1010.79
2022-08-22T03:58:29.296Z,1010.78
2022-08-22T03:59:29.317Z,1010.76
2022-08-22T04:00:29.382Z,1010.75
2022-08-22T04:01:29.352Z,1010.80
2022-08-22T04:02:42.953Z,1010.75
2022-08-22T04:03:29.391Z,1010.79
2022-08-22T04:04:29.409Z,1010.79
2022-08-22T04:05:29.430Z,1010.77
2022-08-22T04:06:29.453Z,1010.78
2022-08-22T04:07:32.037Z,1010.79
2022-08-22T04:08:29.484Z,1010.80
2022-08-22T04:09:29.503Z,1010.79
2022-08-22T04:10:29.536Z,1010.80
2022-08-22T04:11:29.550Z,1010.79
2022-08-22T04:12:29.560Z,1010.84
2022-08-22T04:13:29.581Z,1010.81
2022-08-22T04:14:29.605Z,1010.86
2022-08-22T04:15:29.621Z,1010.86
2022-08-22T04:16:29.637Z,1010.87
2022-08-22T04:17:29.654Z,1010.90
2022-08-22T04:18:30.251Z,1010.88
2022-08-22T04:19:29.692Z,1010.88
2022-08-22T04:20:29.711Z,1010.92
2022-08-22T04:21:29.728Z,1010.92
2022-08-22T04:22:29.747Z,1010.90
2022-08-22T04:23:29.767Z,1010.91
2022-08-22T04:24:29.787Z,1010.92
2022-08-22T04:25:29.808Z,1010.95
2022-08-22T04:26:29.826Z,1010.93
2022-08-22T04:27:29.844Z,1010.96
2022-08-22T04:28:29.864Z,1010.97
2022-08-22T04:29:29.881Z,1010.96
2022-08-22T04:30:29.899Z,1011.01
2022-08-22T04:31:29.922Z,1010.99
2022-08-22T04:32:29.938Z,1011.01
2022-08-22T04:33:29.955Z,1011.05
2022-08-22T04:34:29.978Z,1011.03
2022-08-22T04:35:29.996Z,1011.06
2022-08-22T04:36:30.014Z,1011.08
2022-08-22T04:37:30.032Z,1011.07
2022-08-22T04:38:30.051Z,1011.09
2022-08-22T04:39:30.069Z,1011.06
2022-08-22T04:40:30.090Z,1011.07
2022-08-22T04:41:30.109Z,1011.07
2022-08-22T04:42:32.851Z,1011.11
2022-08-22T04:43:30.146Z,1011.09
2022-08-22T04:44:30.167Z,1011.10
2022-08-22T04:45:30.185Z,1011.11
2022-08-22T04:46:32.097Z,1011.09
2022-08-22T04:47:30.223Z,1011.13
2022-08-22T04:48:30.242Z,1011.10
2022-08-22T04:49:30.262Z,1011.15
2022-08-22T04:50:30.281Z,1011.14
2022-08-22T04:51:30.299Z,1011.14
2022-08-22T04:52:30.323Z,1011.14
2022-08-22T04:53:30.338Z,1011.17
2022-08-22T04:54:30.356Z,1011.17
2022-08-22T04:55:30.376Z,1011.16
2022-08-22T04:56:30.399Z,1011.21
2022-08-22T04:57:30.413Z,1011.17
2022-08-22T04:58:30.435Z,1011.19
2022-08-22T04:59:30.452Z,1011.22
2022-08-22T05:00:30.473Z,1011.17
2022-08-22T05:01:30.630Z,1011.21
2022-08-22T05:02:30.513Z,1011.23
2022-08-22T05:03:30.531Z,1011.24
2022-08-22T05:04:30.552Z,1011.29
2022-08-22T05:05:30.571Z,1011.31
2022-08-22T05:06:30.590Z,1011.31
2022-08-22T05:07:34.772Z,1011.34
2022-08-22T05:08:30.631Z,1011.34
2022-08-22T05:09:30.646Z,1011.36
2022-08-22T05:10:30.668Z,1011.38
2022-08-22T05:11:30.686Z,1011.38
2022-08-22T05:12:32.819Z,1011.38
2022-08-22T05:13:30.725Z,1011.36
2022-08-22T05:14:30.745Z,1011.41
2022-08-22T05:15:30.763Z,1011.44
2022-08-22T05:16:30.783Z,1011.44
2022-08-22T05:17:30.803Z,1011.49
2022-08-22T05:18:30.825Z,1011.51
2022-08-22T05:19:32.288Z,1011.55
2022-08-22T05:20:30.862Z,1011.53
2022-08-22T05:21:30.883Z,1011.49
2022-08-22T05:22:30.901Z,1011.50
2022-08-22T05:23:30.919Z,1011.52
2022-08-22T05:24:30.942Z,1011.50
2022-08-22T05:25:30.960Z,1011.47
2022-08-22T05:26:30.979Z,1011.52
2022-08-22T05:27:30.999Z,1011.53
2022-08-22T05:28:31.019Z,1011.57
2022-08-22T05:29:31.039Z,1011.60
2022-08-22T05:30:31.058Z,1011.59
2022-08-22T05:31:31.080Z,1011.59
2022-08-22T05:32:31.100Z,1011.61
2022-08-22T05:33:31.117Z,1011.59
2022-08-22T05:34:31.138Z,1011.62
2022-08-22T05:35:31.158Z,1011.59
2022-08-22T05:36:31.179Z,1011.59
2022-08-22T05:37:31.198Z,1011.55
2022-08-22T05:38:31.218Z,1011.57
2022-08-22T05:39:31.238Z,1011.62
2022-08-22T05:40:31.258Z,1011.62
2022-08-22T05:41:31.279Z,1011.66
2022-08-22T05:42:31.303Z,1011.67
2022-08-22T05:43:31.319Z,1011.62
2022-08-22T05:44:31.340Z,1011.64
2022-08-22T05:45:31.361Z,1011.62
2022-08-22T05:46:31.380Z,1011.64
2022-08-22T05:47:31.412Z,1011.62
2022-08-22T05:48:31.421Z,1011.65
2022-08-22T05:49:31.439Z,1011.68
2022-08-22T05:50:31.472Z,1011.66
2022-08-22T05:51:31.485Z,1011.66
2022-08-22T05:52:31.505Z,1011.66
2022-08-22T05:53:31.525Z,1011.65
2022-08-22T05:54:34.459Z,1011.64
2022-08-22T05:55:31.564Z,1011.64
2022-08-22T05:56:31.586Z,1011.66
2022-08-22T05:57:31.605Z,1011.68
2022-08-22T05:58:31.630Z,1011.71
2022-08-22T05:59:31.647Z,1011.67
2022-08-22T06:00:31.668Z,1011.67
2022-08-22T06:01:31.789Z,1011.71
2022-08-22T06:02:31.710Z,1011.70
2022-08-22T06:03:31.730Z,1011.72
2022-08-22T06:04:31.751Z,1011.72
2022-08-22T06:05:31.770Z,1011.72
2022-08-22T06:06:31.798Z,1011.74
2022-08-22T06:07:31.815Z,1011.73
2022-08-22T06:08:31.837Z,1011.78
2022-08-22T06:09:35.246Z,1011.74
2022-08-22T06:10:31.878Z,1011.74
2022-08-22T06:11:33.653Z,1011.71
2022-08-22T06:12:31.919Z,1011.75
2022-08-22T06:13:31.939Z,1011.73
2022-08-22T06:14:32.689Z,1011.73
2022-08-22T06:15:31.984Z,1011.76
2022-08-22T06:16:32.012Z,1011.73
2022-08-22T06:17:32.028Z,1011.77
2022-08-22T06:18:32.048Z,1011.75
2022-08-22T06:19:32.071Z,1011.81
2022-08-22T06:20:32.094Z,1011.81
2022-08-22T06:21:37.175Z,1011.82
2022-08-22T06:22:32.135Z,1011.82
2022-08-22T06:23:32.156Z,1011.82
2022-08-22T06:24:32.179Z,1011.80
2022-08-22T06:25:32.200Z,1011.78
2022-08-22T06:26:32.222Z,1011.79
2022-08-22T06:27:32.247Z,1011.81
2022-08-22T06:28:32.268Z,1011.84
2022-08-22T06:29:32.286Z,1011.82
2022-08-22T06:30:32.309Z,1011.80
2022-08-22T06:31:32.331Z,1011.82
2022-08-22T06:32:59.036Z,1011.83
2022-08-22T06:33:32.374Z,1011.85
2022-08-22T06:34:32.398Z,1011.85
2022-08-22T06:35:32.420Z,1011.85
2022-08-22T06:36:32.448Z,1011.91
2022-08-22T06:37:32.463Z,1011.91
2022-08-22T06:38:32.488Z,1011.89
2022-08-22T06:39:32.509Z,1011.90
2022-08-22T06:40:32.534Z,1011.98
2022-08-22T06:41:32.554Z,1011.95
2022-08-22T06:42:32.576Z,1011.92
2022-08-22T06:43:32.599Z,1011.99
2022-08-22T06:44:32.624Z,1011.97
2022-08-22T06:45:32.642Z,1011.96
2022-08-22T06:46:32.665Z,1011.97
2022-08-22T06:47:32.688Z,1011.98
2022-08-22T06:48:32.710Z,1011.98
2022-08-22T06:49:32.733Z,1011.96
2022-08-22T06:50:32.753Z,1012.02
2022-08-22T06:51:32.778Z,1012.02
2022-08-22T06:52:32.801Z,1011.97
2022-08-22T06:53:32.823Z,1012.00
2022-08-22T06:54:34.459Z,1012.02
2022-08-22T06:55:32.869Z,1012.00
2022-08-22T06:56:32.894Z,1012.04
2022-08-22T06:57:32.913Z,1012.06
2022-08-22T06:58:33.935Z,1012.04
2022-08-22T06:59:32.959Z,1012.06
2022-08-22T07:00:32.984Z,1012.06
2022-08-22T07:01:33.076Z,1012.12
2022-08-22T07:02:33.030Z,1012.11
2022-08-22T07:03:33.052Z,1012.09
2022-08-22T07:04:33.074Z,1012.09
2022-08-22T07:05:33.099Z,1012.08
2022-08-22T07:06:33.121Z,1012.08
2022-08-22T07:07:33.146Z,1012.12
2022-08-22T07:08:37.179Z,1012.08
2022-08-22T07:09:33.194Z,1012.09
2022-08-22T07:10:33.213Z,1012.07
2022-08-22T07:11:33.240Z,1012.09
2022-08-22T07:12:33.262Z,1012.11
2022-08-22T07:13:33.283Z,1012.09
2022-08-22T07:14:33.308Z,1012.10
2022-08-22T07:15:33.334Z,1012.10
2022-08-22T07:16:33.357Z,1012.06
2022-08-22T07:17:34.546Z,1012.11
2022-08-22T07:18:33.411Z,1012.15
2022-08-22T07:19:33.424Z,1012.17
2022-08-22T07:20:33.449Z,1012.15
2022-08-22T07:21:36.165Z,1012.13
2022-08-22T07:22:33.496Z,1012.13
2022-08-22T07:23:33.520Z,1012.18
2022-08-22T07:24:33.544Z,1012.19
2022-08-22T07:25:33.568Z,1012.19
2022-08-22T07:26:33.595Z,1012.19
2022-08-22T07:27:33.616Z,1012.23
2022-08-22T07:28:36.965Z,1012.21
2022-08-22T07:29:33.663Z,1012.25
2022-08-22T07:30:33.688Z,1012.27
2022-08-22T07:31:33.712Z,1012.23
2022-08-22T07:32:33.738Z,1012.25
2022-08-22T07:33:33.761Z,1012.23
2022-08-22T07:34:33.786Z,1012.21
2022-08-22T07:35:33.812Z,1012.21
2022-08-22T07:36:33.837Z,1012.23
2022-08-22T07:37:33.858Z,1012.21
2022-08-22T07:38:33.882Z,1012.22
2022-08-22T07:39:33.909Z,1012.26
2022-08-22T07:40:33.934Z,1012.25
2022-08-22T07:41:33.957Z,1012.24
2022-08-22T07:42:33.984Z,1012.23
2022-08-22T07:43:34.008Z,1012.26
2022-08-22T07:44:34.035Z,1012.27
2022-08-22T07:45:34.058Z,1012.27
2022-08-22T07:46:34.082Z,1012.25
2022-08-22T07:47:34.107Z,1012.28
2022-08-22T07:48:38.265Z,1012.29
2022-08-22T07:49:34.157Z,1012.31
2022-08-22T07:50:34.182Z,1012.28
2022-08-22T07:51:34.215Z,1012.31
2022-08-22T07:52:34.234Z,1012.35
2022-08-22T07:53:34.261Z,1012.32
2022-08-22T07:54:34.282Z,1012.35
2022-08-22T07:55:34.309Z,1012.32
2022-08-22T07:56:34.333Z,1012.30
2022-08-22T07:57:34.358Z,1012.33
2022-08-22T07:58:34.385Z,1012.34
2022-08-22T07:59:34.411Z,1012.27
2022-08-22T08:00:34.436Z,1012.28
2022-08-22T08:01:34.534Z,1012.31
2022-08-22T08:02:34.487Z,1012.31
2022-08-22T08:03:34.514Z,1012.31
2022-08-22T08:04:39.516Z,1012.31
2022-08-22T08:05:34.565Z,1012.29
2022-08-22T08:06:34.589Z,1012.25
2022-08-22T08:07:34.623Z,1012.31
2022-08-22T08:08:34.646Z,1012.25
2022-08-22T08:09:34.671Z,1012.29
2022-08-22T08:10:34.697Z,1012.29
2022-08-22T08:11:34.723Z,1012.32
2022-08-22T08:12:34.750Z,1012.31
2022-08-22T08:13:34.774Z,1012.29
2022-08-22T08:14:34.803Z,1012.31
2022-08-22T08:15:34.830Z,1012.32
2022-08-22T08:16:34.857Z,1012.26
2022-08-22T08:17:34.882Z,1012.34
2022-08-22T08:18:34.908Z,1012.32
2022-08-22T08:19:34.941Z,1012.31
2022-08-22T08:20:34.966Z,1012.32
2022-08-22T08:21:34.991Z,1012.30
2022-08-22T08:22:35.017Z,1012.31
2022-08-22T08:23:37.911Z,1012.29
2022-08-22T08:24:41.264Z,1012.31
2022-08-22T08:25:35.099Z,1012.31
2022-08-22T08:26:35.123Z,1012.30
2022-08-22T08:27:35.150Z,1012.29
2022-08-22T08:28:35.177Z,1012.34
2022-08-22T08:29:35.199Z,1012.31
2022-08-22T08:30:35.227Z,1012.28
2022-08-22T08:31:35.254Z,1012.28
2022-08-22T08:32:35.289Z,1012.33
2022-08-22T08:33:35.312Z,1012.27
2022-08-22T08:34:35.434Z,1012.31
2022-08-22T08:35:42.297Z,1012.32
2022-08-22T08:36:35.387Z,1012.30
2022-08-22T08:37:35.411Z,1012.31
2022-08-22T08:38:35.439Z,1012.29
2022-08-22T08:39:35.741Z,1012.32
2022-08-22T08:40:35.492Z,1012.32
2022-08-22T08:41:35.518Z,1012.30
2022-08-22T08:42:35.549Z,1012.35
2022-08-22T08:43:35.572Z,1012.33
2022-08-22T08:44:35.599Z,1012.31
2022-08-22T08:45:35.625Z,1012.29
2022-08-22T08:46:35.650Z,1012.34
2022-08-22T08:47:35.677Z,1012.27
2022-08-22T08:48:35.705Z,1012.26
2022-08-22T08:49:35.729Z,1012.28
2022-08-22T08:50:35.758Z,1012.26
2022-08-22T08:51:35.785Z,1012.21
2022-08-22T08:52:35.811Z,1012.22
2022-08-22T08:53:35.834Z,1012.22
2022-08-22T08:54:35.865Z,1012.22
2022-08-22T08:55:35.889Z,1012.24
2022-08-22T08:56:35.917Z,1012.26
2022-08-22T08:57:36.019Z,1012.26
2022-08-22T08:58:35.967Z,1012.23
2022-08-22T08:59:35.995Z,1012.19
2022-08-22T09:00:36.036Z,1012.23
2022-08-22T09:01:36.186Z,1012.25
2022-08-22T09:02:36.749Z,1012.27
2022-08-22T09:03:36.100Z,1012.26
2022-08-22T09:04:36.128Z,1012.26
2022-08-22T09:05:36.154Z,1012.23
2022-08-22T09:06:36.180Z,1012.26
2022-08-22T09:07:36.211Z,1012.27
2022-08-22T09:08:36.234Z,1012.26
2022-08-22T09:09:36.259Z,1012.23
2022-08-22T09:10:36.286Z,1012.24
2022-08-22T09:11:36.313Z,1012.26
2022-08-22T09:12:36.341Z,1012.31
2022-08-22T09:13:40.918Z,1012.25
2022-08-22T09:14:36.394Z,1012.26
2022-08-22T09:15:37.559Z,1012.27
2022-08-22T09:16:36.446Z,1012.28
2022-08-22T09:17:36.473Z,1012.26
2022-08-22T09:18:36.501Z,1012.30
2022-08-22T09:19:36.528Z,1012.33
2022-08-22T09:20:36.554Z,1012.25
2022-08-22T09:21:36.584Z,1012.27
2022-08-22T09:22:50.587Z,1012.26
2022-08-22T09:23:36.637Z,1012.28
2022-08-22T09:24:36.664Z,1012.31
2022-08-22T09:25:38.597Z,1012.37
2022-08-22T09:26:36.714Z,1012.35
2022-08-22T09:27:36.742Z,1012.34
2022-08-22T09:28:36.767Z,1012.33
2022-08-22T09:30:36.823Z,1012.34
2022-08-22T09:31:51.967Z,1012.35
2022-08-22T09:32:36.877Z,1012.38
2022-08-22T09:33:36.905Z,1012.36
2022-08-22T09:34:36.934Z,1012.36
2022-08-22T09:35:36.960Z,1012.35
2022-08-22T09:36:36.988Z,1012.34
2022-08-22T09:37:37.013Z,1012.33
2022-08-22T09:38:37.047Z,1012.35
2022-08-22T09:39:37.138Z,1012.37
2022-08-22T09:40:37.111Z,1012.39
2022-08-22T09:41:37.122Z,1012.35
2022-08-22T09:42:37.149Z,1012.38
2022-08-22T09:43:37.621Z,1012.37
2022-08-22T09:44:39.403Z,1012.34
2022-08-22T09:45:37.234Z,1012.28
2022-08-22T09:46:37.259Z,1012.34
2022-08-22T09:47:39.278Z,1012.31
2022-08-22T09:48:37.334Z,1012.35
2022-08-22T09:49:37.339Z,1012.39
2022-08-22T09:50:37.369Z,1012.41
2022-08-22T09:51:37.395Z,1012.39
2022-08-22T09:52:37.423Z,1012.39
2022-08-22T09:53:37.479Z,1012.40
2022-08-22T09:54:37.476Z,1012.38
2022-08-22T09:55:37.505Z,1012.35
2022-08-22T09:56:37.532Z,1012.35
2022-08-22T09:57:37.557Z,1012.36
2022-08-22T09:58:41.617Z,1012.34
2022-08-22T09:59:37.614Z,1012.36
2022-08-22T10:00:37.639Z,1012.37
2022-08-22T10:01:37.693Z,1012.33
2022-08-22T10:02:37.695Z,1012.35
2022-08-22T10:03:37.722Z,1012.37
2022-08-22T10:04:37.750Z,1012.37
2022-08-22T10:05:43.577Z,1012.38
2022-08-22T10:06:37.804Z,1012.32
2022-08-22T10:07:37.831Z,1012.40
2022-08-22T10:08:37.860Z,1012.34
2022-08-22T10:09:37.887Z,1012.34
2022-08-22T10:10:37.914Z,1012.35
2022-08-22T10:11:38.777Z,1012.34
2022-08-22T10:12:37.971Z,1012.36
2022-08-22T10:13:38.053Z,1012.42
2022-08-22T10:14:38.027Z,1012.36
2022-08-22T10:15:38.052Z,1012.38
2022-08-22T10:16:38.084Z,1012.38
2022-08-22T10:17:40.840Z,1012.41
2022-08-22T10:18:52.502Z,1012.39
2022-08-22T10:19:38.275Z,1012.39
2022-08-22T10:20:38.193Z,1012.45
2022-08-22T10:21:38.223Z,1012.45
2022-08-22T10:22:38.254Z,1012.43
2022-08-22T10:23:38.277Z,1012.43
2022-08-22T10:24:43.710Z,1012.41
2022-08-22T10:25:42.164Z,1012.42
2022-08-22T10:26:39.045Z,1012.38
2022-08-22T10:27:38.391Z,1012.39
2022-08-22T10:28:38.418Z,1012.36
2022-08-22T10:29:38.451Z,1012.38
2022-08-22T10:30:38.477Z,1012.39
2022-08-22T10:31:58.384Z,1012.34
2022-08-22T10:32:38.537Z,1012.36
2022-08-22T10:33:39.813Z,1012.36
2022-08-22T10:34:38.594Z,1012.30
2022-08-22T10:35:38.628Z,1012.31
2022-08-22T10:36:38.656Z,1012.31
2022-08-22T10:37:39.555Z,1012.37
2022-08-22T10:38:46.319Z,1012.41
2022-08-22T10:39:38.783Z,1012.37
2022-08-22T10:40:38.775Z,1012.36
2022-08-22T10:41:38.809Z,1012.33
2022-08-22T10:42:38.838Z,1012.30
2022-08-22T10:43:38.865Z,1012.31
2022-08-22T10:44:38.895Z,1012.33
2022-08-22T10:45:38.926Z,1012.32
2022-08-22T10:46:39.045Z,1012.26
2022-08-22T10:47:38.987Z,1012.28
2022-08-22T10:48:39.019Z,1012.36
2022-08-22T10:49:39.048Z,1012.36
2022-08-22T10:50:39.079Z,1012.28
2022-08-22T10:51:39.109Z,1012.34
2022-08-22T10:52:39.143Z,1012.39
2022-08-22T10:53:39.170Z,1012.37
2022-08-22T10:54:39.212Z,1012.36
2022-08-22T10:55:39.237Z,1012.33
2022-08-22T10:56:39.278Z,1012.37
2022-08-22T10:57:39.293Z,1012.36
2022-08-22T10:58:39.325Z,1012.30
2022-08-22T10:59:39.383Z,1012.30
2022-08-22T11:00:46.230Z,1012.30
2022-08-22T11:01:41.841Z,1012.32
2022-08-22T11:02:39.448Z,1012.34
2022-08-22T11:03:39.478Z,1012.33
2022-08-22T11:04:39.508Z,1012.32
2022-08-22T11:05:39.537Z,1012.39
2022-08-22T11:06:39.570Z,1012.30
2022-08-22T11:07:39.600Z,1012.30
2022-08-22T11:08:39.630Z,1012.36
2022-08-22T11:09:39.662Z,1012.36
2022-08-22T11:10:39.694Z,1012.34
2022-08-22T11:11:39.722Z,1012.31
2022-08-22T11:12:41.650Z,1012.35
2022-08-22T11:13:43.333Z,1012.40
2022-08-22T11:14:39.815Z,1012.37
2022-08-22T11:15:39.847Z,1012.39
2022-08-22T11:16:41.627Z,1012.39
2022-08-22T11:17:42.643Z,1012.33
2022-08-22T11:18:39.938Z,1012.34
2022-08-22T11:19:39.968Z,1012.25
2022-08-22T11:20:39.998Z,1012.31
2022-08-22T11:21:40.029Z,1012.35
2022-08-22T11:22:40.060Z,1012.31
2022-08-22T11:23:40.094Z,1012.19
2022-08-22T11:24:46.615Z,1012.24
2022-08-22T11:25:40.154Z,1012.21
2022-08-22T11:26:47.388Z,1012.32
2022-08-22T11:27:40.977Z,1012.29
2022-08-22T11:28:40.247Z,1012.27
2022-08-22T11:29:41.193Z,1012.25
2022-08-22T11:30:44.906Z,1012.23
2022-08-22T11:31:40.341Z,1012.21
2022-08-22T11:32:40.374Z,1012.12
2022-08-22T11:33:47.126Z,1012.14
2022-08-22T11:34:40.438Z,1012.10
2022-08-22T11:35:40.471Z,1012.07
2022-08-22T11:36:40.503Z,1012.02
2022-08-22T11:37:42.599Z,1012.04
2022-08-22T11:38:40.568Z,1012.13
2022-08-22T11:39:40.654Z,1012.08
2022-08-22T11:40:40.630Z,1012.11
2022-08-22T11:41:40.665Z,1012.12
2022-08-22T11:42:47.358Z,1012.15
2022-08-22T11:43:40.721Z,1012.22
2022-08-22T11:44:50.504Z,1012.18
2022-08-22T11:45:40.785Z,1012.21
2022-08-22T11:46:40.814Z,1012.21
2022-08-22T11:47:40.849Z,1012.20
2022-08-22T11:48:40.882Z,1012.17
2022-08-22T11:49:40.906Z,1012.22
2022-08-22T11:50:42.205Z,1012.16
2022-08-22T11:51:40.970Z,1012.24
2022-08-22T11:52:40.998Z,1012.16
2022-08-22T11:53:41.030Z,1012.15
2022-08-22T11:54:42.274Z,1012.15
2022-08-22T11:55:41.090Z,1012.13
2022-08-22T11:56:41.560Z,1012.14
2022-08-22T11:57:44.309Z,1012.17
2022-08-22T11:58:41.188Z,1012.13